createdAt,value
2022-12-22T00:02:07.338Z,95870.59
2022-12-22T00:05:11.689Z,95868.97
2022-12-22T00:08:16.241Z,95867.00
2022-12-22T00:11:20.709Z,95872.09
2022-12-22T00:14:29.837Z,95881.69
2022-12-22T00:17:44.611Z,95882.50
2022-12-22T00:20:52.588Z,95884.94
2022-12-22T00:23:57.039Z,95892.91
2022-12-22T00:27:01.524Z,95889.44
2022-12-22T00:30:05.983Z,95874.75
2022-12-22T00:33:10.429Z,95880.06
2022-12-22T00:36:14.609Z,95883.75
2022-12-22T00:39:19.144Z,95862.88
2022-12-22T00:42:23.787Z,95880.06
2022-12-22T00:45:28.558Z,95880.53
2022-12-22T00:48:42.181Z,95889.00
2022-12-22T00:51:47.393Z,95884.38
2022-12-22T00:54:52.085Z,95876.63
2022-12-22T00:57:56.406Z,95884.38
2022-12-22T01:01:01.295Z,95881.47
2022-12-22T01:04:05.803Z,95870.84
2022-12-22T01:07:11.329Z,95872.69
2022-12-22T01:10:15.751Z,95863.91
2022-12-22T01:13:20.465Z,95867.59
2022-12-22T01:16:27.915Z,95862.75
2022-12-22T01:19:32.412Z,95875.56
2022-12-22T01:22:38.088Z,95855.59
2022-12-22T01:25:42.811Z,95860.22
2022-12-22T01:28:47.211Z,95853.28
2022-12-22T01:31:52.007Z,95843.09
2022-12-22T01:34:58.097Z,95854.31
2022-12-22T01:38:02.560Z,95857.44
2022-12-22T01:41:07.417Z,95851.66
2022-12-22T01:44:11.810Z,95846.34
2022-12-22T01:47:48.125Z,95841.50
2022-12-22T01:50:56.125Z,95836.66
2022-12-22T01:54:01.086Z,95838.28
2022-12-22T01:57:07.059Z,95837.47
2022-12-22T02:00:11.698Z,95821.75
2022-12-22T02:03:20.635Z,95818.75
2022-12-22T02:06:59.502Z,95809.53
2022-12-22T02:10:24.418Z,95820.25
2022-12-22T02:13:32.990Z,95807.47
2022-12-22T02:16:47.437Z,95798.78
2022-12-22T02:20:00.006Z,95812.66
2022-12-22T02:23:23.168Z,95826.16
2022-12-22T02:26:55.701Z,95828.00
2022-12-22T02:30:26.995Z,95822.16
2022-12-22T02:33:32.023Z,95816.56
2022-12-22T02:36:47.753Z,95816.84
2022-12-22T02:40:21.727Z,95811.97
2022-12-22T02:43:33.152Z,95816.03
2022-12-22T02:47:01.480Z,95808.75
2022-12-22T02:50:15.247Z,95814.06
2022-12-22T02:53:20.261Z,95823.06
2022-12-22T02:56:26.824Z,95817.75
2022-12-22T02:59:31.128Z,95822.25
2022-12-22T03:02:35.488Z,95819.38
2022-12-22T03:05:40.208Z,95823.28
2022-12-22T03:08:44.803Z,95827.91
2022-12-22T03:11:49.407Z,95833.22
2022-12-22T03:14:54.863Z,95835.31
2022-12-22T03:18:00.559Z,95823.63
2022-12-22T03:21:06.152Z,95828.94
2022-12-22T03:24:10.629Z,95826.28
2022-12-22T03:26:56.615Z,95824.69
2022-12-22T03:29:42.567Z,95823.06
2022-12-22T03:32:32.454Z,95832.06
2022-12-22T03:35:19.315Z,95819.00
2022-12-22T03:38:05.327Z,95822.47
2022-12-22T03:40:50.928Z,95819.00
2022-12-22T03:43:55.092Z,95819.00
2022-12-22T03:46:41.171Z,95815.00
2022-12-22T03:49:27.039Z,95814.63
2022-12-22T03:52:12.806Z,95815.91
2022-12-22T03:54:58.551Z,95821.22
2022-12-22T03:57:44.143Z,95814.28
2022-12-22T04:00:29.982Z,95817.75
2022-12-22T04:03:15.928Z,95812.66
2022-12-22T04:06:01.911Z,95811.84
2022-12-22T04:08:47.554Z,95814.41
2022-12-22T04:11:51.939Z,95814.06
2022-12-22T04:14:38.765Z,95812.88
2022-12-22T04:17:24.641Z,95817.88
2022-12-22T04:20:10.758Z,95818.09
2022-12-22T04:22:57.121Z,95823.63
2022-12-22T04:25:42.994Z,95820.16
2022-12-22T04:28:28.549Z,95812.19
2022-12-22T04:31:14.241Z,95808.72
2022-12-22T04:33:59.956Z,95813.38
2022-12-22T04:36:45.647Z,95807.47
2022-12-22T04:39:31.267Z,95806.78
2022-12-22T04:42:16.875Z,95809.19
2022-12-22T04:45:02.566Z,95801.00
2022-12-22T04:47:48.219Z,95798.13
2022-12-22T04:50:33.928Z,95798.13
2022-12-22T04:53:19.987Z,95807.72
2022-12-22T04:56:07.527Z,95802.97
2022-12-22T04:58:53.141Z,95804.81
2022-12-22T05:01:39.057Z,95802.97
2022-12-22T05:04:25.237Z,95815.22
2022-12-22T05:07:10.981Z,95809.09
2022-12-22T05:09:56.769Z,95803.78
2022-12-22T05:12:57.428Z,95797.66
2022-12-22T05:15:43.429Z,95805.06
2022-12-22T05:18:29.082Z,95803.44
2022-12-22T05:21:17.651Z,95809.31
2022-12-22T05:24:03.877Z,95806.66
2022-12-22T05:26:49.887Z,95805.19
2022-12-22T05:29:35.518Z,95813.69
2022-12-22T05:32:21.241Z,95819.50
2022-12-22T05:35:07.900Z,95822.38
2022-12-22T05:37:53.738Z,95819.72
2022-12-22T05:40:39.492Z,95820.75
2022-12-22T05:43:25.082Z,95819.94
2022-12-22T05:46:11.857Z,95817.88
2022-12-22T05:48:57.721Z,95823.19
2022-12-22T05:51:43.321Z,95824.00
2022-12-22T05:54:29.175Z,95824.00
2022-12-22T05:57:15.116Z,95819.25
2022-12-22T06:00:01.003Z,95819.25
2022-12-22T06:02:46.865Z,95816.59
2022-12-22T06:05:32.874Z,95820.28
2022-12-22T06:08:18.747Z,95825.13
2022-12-22T06:11:04.391Z,95828.81
2022-12-22T06:13:50.149Z,95824.31
2022-12-22T06:16:35.927Z,95838.66
2022-12-22T06:19:21.933Z,95844.75
2022-12-22T06:22:07.532Z,95843.16
2022-12-22T06:24:53.142Z,95851.34
2022-12-22T06:27:38.790Z,95846.84
2022-12-22T06:30:31.025Z,95851.13
2022-12-22T06:33:20.096Z,95847.16
2022-12-22T06:36:08.146Z,95857.78
2022-12-22T06:38:53.893Z,95856.06
2022-12-22T06:41:59.635Z,95852.38
2022-12-22T06:44:45.423Z,95861.84
2022-12-22T06:47:31.075Z,95861.38
2022-12-22T06:50:16.848Z,95853.28
2022-12-22T06:53:08.343Z,95850.97
2022-12-22T06:55:54.141Z,95863.09
2022-12-22T06:58:39.825Z,95864.94
2022-12-22T07:01:25.651Z,95855.03
2022-12-22T07:04:11.233Z,95855.34
2022-12-22T07:06:56.885Z,95862.78
2022-12-22T07:09:42.455Z,95869.22
2022-12-22T07:12:28.068Z,95870.03
2022-12-22T07:15:13.785Z,95861.84
2022-12-22T07:17:59.359Z,95862.28
2022-12-22T07:20:45.092Z,95864.50
2022-12-22T07:23:30.913Z,95861.47
2022-12-22T07:26:16.846Z,95871.44
2022-12-22T07:29:02.532Z,95867.97
2022-12-22T07:31:48.262Z,95864.50
2022-12-22T07:34:33.959Z,95861.38
2022-12-22T07:37:19.656Z,95861.16
2022-12-22T07:40:05.937Z,95857.47
2022-12-22T07:42:56.624Z,95862.53
2022-12-22T07:45:42.489Z,95859.88
2022-12-22T07:48:46.699Z,95865.19
2022-12-22T07:51:39.295Z,95855.63
2022-12-22T07:54:25.468Z,95856.19
2022-12-22T07:57:11.294Z,95862.88
2022-12-22T07:59:57.044Z,95854.13
2022-12-22T08:02:42.954Z,95851.47
2022-12-22T08:05:28.802Z,95855.06
2022-12-22T08:08:14.377Z,95853.75
2022-12-22T08:11:04.002Z,95856.19
2022-12-22T08:13:49.997Z,95845.56
2022-12-22T08:16:35.761Z,95850.19
2022-12-22T08:19:21.864Z,95848.13
2022-12-22T08:22:07.610Z,95850.28
2022-12-22T08:24:53.846Z,95838.88
2022-12-22T08:27:44.138Z,95856.31
2022-12-22T08:30:29.953Z,95862.44
2022-12-22T08:33:15.743Z,95849.97
2022-12-22T08:36:07.762Z,95867.63
2022-12-22T08:38:56.538Z,95858.16
2022-12-22T08:41:53.481Z,95859.78
2022-12-22T08:44:39.363Z,95855.28
2022-12-22T08:47:25.338Z,95860.44
2022-12-22T08:50:11.421Z,95851.78
2022-12-22T08:53:05.995Z,95848.91
2022-12-22T08:55:54.778Z,95847.97
2022-12-22T08:58:40.825Z,95838.50
2022-12-22T09:01:26.679Z,95838.00
2022-12-22T09:04:13.463Z,95838.13
2022-12-22T09:07:00.123Z,95835.53
2022-12-22T09:09:46.786Z,95833.22
2022-12-22T09:12:32.753Z,95828.72
2022-12-22T09:15:18.985Z,95833.00
2022-12-22T09:18:04.735Z,95827.00
2022-12-22T09:20:56.864Z,95829.06
2022-12-22T09:23:42.942Z,95825.09
2022-12-22T09:26:29.302Z,95818.44
2022-12-22T09:29:16.000Z,95831.50
2022-12-22T09:32:02.072Z,95822.00
2022-12-22T09:34:48.827Z,95803.94
2022-12-22T09:37:34.371Z,95800.00
2022-12-22T09:40:22.261Z,95803.75
2022-12-22T09:43:12.473Z,95782.41
2022-12-22T09:45:58.755Z,95804.03
2022-12-22T09:48:44.545Z,95813.25
2022-12-22T09:51:31.060Z,95796.00
2022-12-22T09:54:17.192Z,95794.66
2022-12-22T09:57:03.102Z,95775.38
2022-12-22T09:59:49.103Z,95786.34
2022-12-22T10:02:46.380Z,95783.91
2022-12-22T10:05:48.379Z,95773.41
2022-12-22T10:08:36.475Z,95764.00
2022-12-22T10:11:22.063Z,95767.31
2022-12-22T10:14:09.911Z,95765.75
2022-12-22T10:17:15.845Z,95767.72
2022-12-22T10:20:19.481Z,95768.94
2022-12-22T10:23:14.077Z,95768.75
2022-12-22T10:26:30.880Z,95759.81
2022-12-22T10:29:18.142Z,95759.44
2022-12-22T10:32:12.483Z,95755.81
2022-12-22T10:35:01.263Z,95738.22
2022-12-22T10:37:47.034Z,95750.19
2022-12-22T10:40:44.682Z,95749.78
2022-12-22T10:43:37.807Z,95744.09
2022-12-22T10:46:36.651Z,95739.00
2022-12-22T10:52:30.111Z,95732.38
2022-12-22T10:55:28.709Z,95729.53
2022-12-22T10:58:21.622Z,95728.25
2022-12-22T11:01:10.579Z,95718.63
2022-12-22T11:03:57.906Z,95711.69
2022-12-22T11:06:44.689Z,95713.28
2022-12-22T11:09:34.753Z,95707.38
2022-12-22T11:12:24.482Z,95707.13
2022-12-22T11:15:41.766Z,95698.84
2022-12-22T11:18:39.102Z,95690.84
2022-12-22T11:21:58.919Z,95685.00
2022-12-22T11:25:02.496Z,95683.41
2022-12-22T11:28:06.660Z,95683.84
2022-12-22T11:30:58.805Z,95679.19
2022-12-22T11:33:54.597Z,95680.94
2022-12-22T11:37:18.909Z,95682.44
2022-12-22T11:40:11.871Z,95663.63
2022-12-22T11:43:22.270Z,95668.38
2022-12-22T11:46:46.763Z,95658.03
2022-12-22T11:49:50.786Z,95657.88
2022-12-22T11:53:04.641Z,95657.75
2022-12-22T11:55:59.390Z,95653.78
2022-12-22T11:59:06.340Z,95649.78
2022-12-22T12:01:58.321Z,95645.53
2022-12-22T12:05:12.111Z,95641.88
2022-12-22T12:08:36.011Z,95643.78
2022-12-22T12:11:57.565Z,95632.72
2022-12-22T12:15:01.561Z,95622.47
2022-12-22T12:18:23.839Z,95624.13
2022-12-22T12:21:21.716Z,95615.88
2022-12-22T12:24:19.009Z,95619.25
2022-12-22T12:27:46.060Z,95617.91
2022-12-22T12:30:39.336Z,95613.06
2022-12-22T12:33:39.214Z,95620.72
2022-12-22T12:36:31.420Z,95616.06
2022-12-22T12:39:26.436Z,95603.78
2022-12-22T12:42:28.788Z,95605.75
2022-12-22T12:45:33.795Z,95602.53
2022-12-22T12:48:22.785Z,95602.78
2022-12-22T12:51:46.637Z,95603.28
2022-12-22T12:54:32.337Z,95605.91
2022-12-22T12:57:28.460Z,95600.94
2022-12-22T13:00:43.134Z,95587.72
2022-12-22T13:06:49.354Z,95597.03
2022-12-22T13:09:51.960Z,95584.50
2022-12-22T13:12:55.932Z,95593.38
2022-12-22T13:15:42.926Z,95592.09
2022-12-22T13:18:34.773Z,95595.84
2022-12-22T13:27:51.169Z,95593.13
2022-12-22T13:30:37.558Z,95598.19
2022-12-22T13:30:50.994Z,95601.97
2022-12-22T13:33:25.891Z,95598.16
2022-12-22T13:36:28.683Z,95592.28
2022-12-22T13:39:15.820Z,95599.75
2022-12-22T13:42:01.989Z,95587.41
2022-12-22T13:44:47.597Z,95593.28
2022-12-22T13:47:33.198Z,95597.75
2022-12-22T13:50:25.626Z,95590.19
2022-12-22T13:53:50.012Z,95587.72
2022-12-22T13:56:56.865Z,95586.03
2022-12-22T13:59:44.283Z,95589.84
2022-12-22T14:02:32.928Z,95577.34
2022-12-22T14:05:19.548Z,95583.63
2022-12-22T14:08:06.757Z,95578.38
2022-12-22T14:10:53.714Z,95573.63
2022-12-22T14:13:40.017Z,95588.31
2022-12-22T14:16:26.155Z,95583.25
2022-12-22T14:19:17.039Z,95585.91
2022-12-22T14:22:06.219Z,95587.97
2022-12-22T14:25:01.953Z,95585.28
2022-12-22T14:27:49.472Z,95609.06
2022-12-22T14:30:42.449Z,95589.47
2022-12-22T14:33:32.191Z,95596.94
2022-12-22T14:36:27.652Z,95587.53
2022-12-22T14:39:23.094Z,95584.56
2022-12-22T14:42:13.554Z,95595.22
2022-12-22T14:45:00.284Z,95593.09
2022-12-22T14:47:46.283Z,95589.56
2022-12-22T14:50:33.251Z,95583.97
2022-12-22T14:53:28.628Z,95592.22
2022-12-22T14:56:17.658Z,95589.81
2022-12-22T14:59:27.625Z,95577.97
2022-12-22T15:02:24.362Z,95580.38
2022-12-22T15:05:27.818Z,95583.81
2022-12-22T15:08:40.839Z,95581.63
2022-12-22T15:11:26.940Z,95578.91
2022-12-22T15:14:29.237Z,95591.16
2022-12-22T15:17:22.666Z,95588.97
2022-12-22T15:20:16.167Z,95597.44
2022-12-22T15:23:02.015Z,95599.56
2022-12-22T15:25:48.083Z,95600.03
2022-12-22T15:28:34.004Z,95595.94
2022-12-22T15:31:19.728Z,95597.78
2022-12-22T15:34:12.427Z,95592.84
2022-12-22T15:36:58.943Z,95593.31
2022-12-22T15:39:45.100Z,95592.66
2022-12-22T15:42:31.152Z,95596.28
2022-12-22T15:45:18.102Z,95602.63
2022-12-22T15:48:05.396Z,95597.16
2022-12-22T15:50:51.688Z,95601.91
2022-12-22T15:53:38.659Z,95593.31
2022-12-22T15:56:26.342Z,95602.91
2022-12-22T15:59:18.676Z,95612.69
2022-12-22T16:02:20.429Z,95605.38
2022-12-22T16:05:17.832Z,95620.50
2022-12-22T16:08:30.371Z,95609.97
2022-12-22T16:11:28.492Z,95615.78
2022-12-22T16:14:15.947Z,95618.38
2022-12-22T16:17:02.145Z,95616.13
2022-12-22T16:19:48.116Z,95623.88
2022-12-22T16:22:36.044Z,95620.88
2022-12-22T16:25:28.205Z,95613.34
2022-12-22T16:28:24.716Z,95630.50
2022-12-22T16:31:22.881Z,95634.53
2022-12-22T16:34:12.421Z,95636.94
2022-12-22T16:36:58.428Z,95626.28
2022-12-22T16:39:45.216Z,95638.31
2022-12-22T16:45:44.559Z,95634.53
2022-12-22T16:48:39.130Z,95638.84
2022-12-22T16:51:28.129Z,95632.72
2022-12-22T16:54:16.261Z,95642.41
2022-12-22T16:57:02.188Z,95643.53
2022-12-22T16:59:47.997Z,95638.69
2022-12-22T17:02:34.582Z,95639.75
2022-12-22T17:05:29.454Z,95640.97
2022-12-22T17:08:26.506Z,95655.63
2022-12-22T17:11:19.214Z,95650.31
2022-12-22T17:14:28.987Z,95647.13
2022-12-22T17:17:17.358Z,95648.53
2022-12-22T17:20:03.588Z,95638.13
2022-12-22T17:22:55.604Z,95648.91
2022-12-22T17:25:41.642Z,95643.34
2022-12-22T17:28:27.442Z,95634.78
2022-12-22T17:31:21.519Z,95643.72
2022-12-22T17:34:19.915Z,95629.84
2022-12-22T17:37:31.229Z,95639.38
2022-12-22T17:40:26.538Z,95636.41
2022-12-22T17:43:17.527Z,95623.22
2022-12-22T17:46:03.430Z,95636.53
2022-12-22T17:48:50.071Z,95638.63
2022-12-22T17:51:36.730Z,95644.97
2022-12-22T17:54:27.741Z,95639.13
2022-12-22T17:57:23.357Z,95637.00
2022-12-22T18:00:21.707Z,95629.00
2022-12-22T18:03:11.839Z,95634.56
2022-12-22T18:05:59.270Z,95634.53
2022-12-22T18:08:45.430Z,95642.75
2022-12-22T18:11:31.431Z,95638.41
2022-12-22T18:14:18.439Z,95649.38
2022-12-22T18:17:04.314Z,95646.47
2022-12-22T18:19:50.631Z,95641.94
2022-12-22T18:22:36.575Z,95655.50
2022-12-22T18:25:24.816Z,95659.53
2022-12-22T18:28:14.984Z,95653.16
2022-12-22T18:31:01.004Z,95648.63
2022-12-22T18:33:47.459Z,95647.59
2022-12-22T18:36:33.617Z,95647.28
2022-12-22T18:39:20.265Z,95650.50
2022-12-22T18:42:23.658Z,95651.78
2022-12-22T18:45:16.895Z,95651.78
2022-12-22T18:48:05.040Z,95668.88
2022-12-22T18:50:51.193Z,95649.88
2022-12-22T18:53:38.220Z,95657.09
2022-12-22T18:56:24.287Z,95658.72
2022-12-22T18:59:24.059Z,95654.44
2022-12-22T19:02:23.339Z,95658.41
2022-12-22T19:05:15.719Z,95669.31
2022-12-22T19:08:01.840Z,95650.59
2022-12-22T19:10:53.212Z,95665.19
2022-12-22T19:13:41.443Z,95654.72
2022-12-22T19:16:27.803Z,95646.66
2022-12-22T19:19:18.986Z,95651.50
2022-12-22T19:22:04.996Z,95644.56
2022-12-22T19:24:51.675Z,95649.88
2022-12-22T19:27:37.960Z,95651.00
2022-12-22T19:30:25.513Z,95648.25
2022-12-22T19:33:18.594Z,95644.56
2022-12-22T19:36:31.379Z,95655.19
2022-12-22T19:39:17.896Z,95637.06
2022-12-22T19:42:04.102Z,95641.31
2022-12-22T19:44:49.938Z,95639.72
2022-12-22T19:47:35.655Z,95636.53
2022-12-22T19:50:27.169Z,95632.78
2022-12-22T19:53:13.935Z,95632.31
2022-12-22T19:55:59.936Z,95634.25
2022-12-22T19:58:46.097Z,95631.88
2022-12-22T20:01:31.994Z,95640.50
2022-12-22T20:04:18.070Z,95633.56
2022-12-22T20:07:03.888Z,95641.63
2022-12-22T20:09:49.931Z,95635.81
2022-12-22T20:12:38.219Z,95629.19
2022-12-22T20:15:30.319Z,95636.47
2022-12-22T20:18:21.733Z,95628.47
2022-12-22T20:21:24.407Z,95618.38
2022-12-22T20:24:19.273Z,95632.72
2022-12-22T20:27:10.994Z,95635.16
2022-12-22T20:29:56.969Z,95631.13
2022-12-22T20:32:42.659Z,95625.31
2022-12-22T20:35:28.491Z,95624.00
2022-12-22T20:38:21.045Z,95621.91
2022-12-22T20:41:09.443Z,95624.34
2022-12-22T20:43:55.311Z,95628.03
2022-12-22T20:46:41.076Z,95621.34
2022-12-22T20:49:26.947Z,95614.66
2022-12-22T20:52:17.651Z,95617.03
2022-12-22T20:55:03.766Z,95615.94
2022-12-22T20:57:49.945Z,95622.34
2022-12-22T21:00:35.903Z,95622.59
2022-12-22T21:03:22.304Z,95631.69
2022-12-22T21:06:37.970Z,95624.19
2022-12-22T21:09:25.947Z,95626.34
2022-12-22T21:12:11.990Z,95632.25
2022-12-22T21:14:57.631Z,95627.72
2022-12-22T21:17:46.219Z,95613.38
2022-12-22T21:20:32.229Z,95623.28
2022-12-22T21:23:17.975Z,95612.56
2022-12-22T21:26:05.683Z,95617.41
2022-12-22T21:28:51.671Z,95644.63
2022-12-22T21:31:37.592Z,95633.97
2022-12-22T21:34:23.337Z,95628.34
2022-12-22T21:37:16.737Z,95637.69
2022-12-22T21:40:02.419Z,95633.97
2022-12-22T21:42:49.077Z,95618.50
2022-12-22T21:45:40.989Z,95637.22
2022-12-22T21:48:28.564Z,95622.53
2022-12-22T21:51:14.202Z,95617.69
2022-12-22T21:54:00.163Z,95623.94
2022-12-22T21:56:46.599Z,95624.50
2022-12-22T21:59:32.301Z,95614.91
2022-12-22T22:02:18.738Z,95612.81
2022-12-22T22:05:05.056Z,95607.00
2022-12-22T22:07:51.425Z,95601.66
2022-12-22T22:10:39.515Z,95602.16
2022-12-22T22:13:25.731Z,95583.41
2022-12-22T22:16:11.688Z,95590.91
2022-12-22T22:18:57.936Z,95586.88
2022-12-22T22:21:47.547Z,95583.34
2022-12-22T22:24:33.702Z,95589.16
2022-12-22T22:27:19.713Z,95589.16
2022-12-22T22:30:07.076Z,95576.97
2022-12-22T22:32:54.170Z,95569.00
2022-12-22T22:35:41.116Z,95564.97
2022-12-22T22:38:27.095Z,95570.28
2022-12-22T22:41:12.848Z,95564.97
2022-12-22T22:43:58.622Z,95579.31
2022-12-22T22:46:44.727Z,95571.78
2022-12-22T22:49:31.142Z,95578.19
2022-12-22T22:52:17.072Z,95559.78
2022-12-22T22:55:02.965Z,95548.19
2022-12-22T22:57:48.801Z,95558.59
2022-12-22T23:00:34.719Z,95550.88
2022-12-22T23:03:20.478Z,95553.31
2022-12-22T23:06:08.501Z,95547.81
2022-12-22T23:08:54.466Z,95540.34
2022-12-22T23:11:40.347Z,95539.59
2022-12-22T23:14:26.370Z,95535.66
2022-12-22T23:17:12.342Z,95546.84
2022-12-22T23:19:58.048Z,95550.63
2022-12-22T23:22:43.634Z,95550.13
2022-12-22T23:25:29.315Z,95535.25
2022-12-22T23:28:15.297Z,95514.44
2022-12-22T23:31:01.486Z,95523.84
2022-12-22T23:33:47.389Z,95519.06
2022-12-22T23:36:33.478Z,95520.44
2022-12-22T23:39:19.327Z,95511.91
2022-12-22T23:42:05.162Z,95508.19
2022-12-22T23:44:50.988Z,95505.53
2022-12-22T23:47:36.533Z,95518.34
2022-12-22T23:50:22.232Z,95524.28
2022-12-22T23:53:08.187Z,95514.13
2022-12-22T23:55:54.459Z,95518.44
2022-12-22T23:58:40.139Z,95523.78
